createdAt,value
2017-11-07T00:00:48.402Z,1.50
2017-11-07T00:03:15.818Z,1.40
2017-11-07T00:05:43.230Z,1.20
2017-11-07T00:08:11.418Z,1.10
2017-11-07T00:10:38.829Z,1.10
2017-11-07T00:13:06.252Z,1.10
2017-11-07T00:15:34.895Z,1.10
2017-11-07T00:18:03.094Z,1.20
2017-11-07T00:20:30.561Z,1.10
2017-11-07T00:22:57.970Z,1.20
2017-11-07T00:25:25.384Z,1.30
2017-11-07T00:27:52.798Z,1.30
2017-11-07T00:30:20.978Z,1.00
2017-11-07T00:32:48.394Z,1.00
2017-11-07T00:35:15.917Z,1.10
2017-11-07T00:37:43.334Z,1.10
2017-11-07T00:40:11.522Z,1.10
2017-11-07T00:42:38.934Z,1.00
2017-11-07T00:45:06.351Z,1.10
2017-11-07T00:47:34.021Z,1.10
2017-11-07T00:50:01.444Z,1.10
2017-11-07T00:52:29.617Z,0.60
2017-11-07T00:54:57.802Z,0.40
2017-11-07T00:57:25.206Z,0.40
2017-11-07T00:59:52.619Z,0.40
2017-11-07T01:02:20.035Z,0.50
2017-11-07T01:04:47.453Z,0.50
2017-11-07T01:07:14.910Z,0.50
2017-11-07T01:09:42.322Z,0.60
2017-11-07T01:12:10.510Z,0.70
2017-11-07T01:14:37.927Z,0.60
2017-11-07T01:17:06.507Z,0.60
2017-11-07T01:19:33.923Z,0.50
2017-11-07T01:22:01.387Z,0.40
2017-11-07T01:24:28.799Z,0.30
2017-11-07T01:26:56.238Z,0.50
2017-11-07T01:29:23.655Z,0.60
2017-11-07T01:31:51.076Z,0.70
2017-11-07T01:34:19.267Z,0.90
2017-11-07T01:36:47.439Z,1.00
2017-11-07T01:39:14.859Z,0.90
2017-11-07T01:41:42.272Z,0.90
2017-11-07T01:44:09.697Z,0.80
2017-11-07T01:46:37.873Z,0.90
2017-11-07T01:49:06.055Z,0.90
2017-11-07T01:51:33.478Z,0.90
2017-11-07T01:54:00.893Z,1.00
2017-11-07T01:56:28.553Z,1.10
2017-11-07T01:58:55.983Z,1.20
2017-11-07T02:01:23.394Z,1.30
2017-11-07T02:03:51.023Z,1.40
2017-11-07T02:06:18.439Z,1.50
2017-11-07T02:08:47.285Z,1.70
2017-11-07T02:11:14.729Z,1.70
2017-11-07T02:13:42.186Z,1.80
2017-11-07T02:16:09.589Z,2.00
2017-11-07T02:18:37.014Z,2.20
2017-11-07T02:21:04.426Z,2.20
2017-11-07T02:23:31.886Z,2.10
2017-11-07T02:25:59.304Z,2.20
2017-11-07T02:28:26.826Z,2.00
2017-11-07T02:30:54.243Z,1.90
2017-11-07T02:33:23.210Z,2.00
2017-11-07T02:35:50.630Z,2.00
2017-11-07T02:38:18.046Z,2.20
2017-11-07T02:40:46.242Z,2.60
2017-11-07T02:43:13.665Z,2.60
2017-11-07T02:45:41.074Z,2.70
2017-11-07T02:48:09.498Z,2.50
2017-11-07T02:50:36.901Z,2.50
2017-11-07T02:53:04.306Z,2.50
2017-11-07T02:55:31.722Z,2.30
2017-11-07T02:57:59.491Z,2.20
2017-11-07T03:00:26.884Z,2.10
2017-11-07T03:02:54.293Z,2.20
2017-11-07T03:05:21.712Z,2.40
2017-11-07T03:07:49.895Z,2.80
2017-11-07T03:10:17.314Z,2.70
2017-11-07T03:12:44.734Z,2.80
2017-11-07T03:15:12.943Z,2.80
2017-11-07T03:17:40.366Z,2.90
2017-11-07T03:20:07.778Z,3.00
2017-11-07T03:22:35.969Z,3.10
2017-11-07T03:25:03.390Z,3.10
2017-11-07T03:27:30.803Z,3.20
2017-11-07T03:29:58.228Z,3.30
2017-11-07T03:32:26.406Z,3.40
2017-11-07T03:34:55.509Z,3.40
2017-11-07T03:37:23.686Z,3.50
2017-11-07T03:39:51.103Z,3.40
2017-11-07T03:42:18.524Z,3.40
2017-11-07T03:44:45.938Z,3.30
2017-11-07T03:47:14.123Z,3.20
2017-11-07T03:49:41.541Z,3.20
2017-11-07T03:52:08.951Z,3.20
2017-11-07T03:54:36.367Z,3.20
2017-11-07T03:57:03.791Z,3.20
2017-11-07T03:59:31.206Z,3.20
2017-11-07T04:01:58.627Z,3.40
2017-11-07T04:04:26.048Z,3.50
2017-11-07T04:06:53.467Z,3.50
2017-11-07T04:09:21.654Z,3.50
2017-11-07T04:11:49.066Z,3.50
2017-11-07T04:14:16.489Z,3.40
2017-11-07T04:16:43.906Z,3.30
2017-11-07T04:19:12.093Z,3.10
2017-11-07T04:21:39.502Z,3.00
2017-11-07T04:24:06.920Z,3.10
2017-11-07T04:26:34.335Z,3.10
2017-11-07T04:29:02.527Z,3.20
2017-11-07T04:31:29.947Z,3.20
2017-11-07T04:33:57.386Z,3.20
2017-11-07T04:36:24.794Z,3.00
2017-11-07T04:38:52.215Z,2.80
2017-11-07T04:41:19.636Z,3.00
2017-11-07T04:43:47.474Z,3.00
2017-11-07T04:46:14.890Z,3.10
2017-11-07T04:48:42.309Z,3.20
2017-11-07T04:51:09.732Z,3.30
2017-11-07T04:53:37.920Z,3.50
2017-11-07T04:56:05.332Z,3.50
2017-11-07T04:58:32.755Z,3.50
2017-11-07T05:01:00.798Z,3.50
2017-11-07T05:03:28.971Z,3.60
2017-11-07T05:05:57.159Z,3.60
2017-11-07T05:08:24.575Z,3.50
2017-11-07T05:10:52.000Z,3.50
2017-11-07T05:13:19.411Z,3.50
2017-11-07T05:15:48.098Z,3.40
2017-11-07T05:18:16.288Z,3.50
2017-11-07T05:20:43.695Z,3.40
2017-11-07T05:23:12.039Z,3.40
2017-11-07T05:25:39.495Z,3.40
2017-11-07T05:28:06.910Z,3.50
2017-11-07T05:30:35.094Z,3.10
2017-11-07T05:33:02.519Z,3.10
2017-11-07T05:35:29.944Z,3.20
2017-11-07T05:37:57.366Z,3.50
2017-11-07T05:40:25.059Z,3.50
2017-11-07T05:42:52.450Z,3.70
2017-11-07T05:45:21.378Z,3.60
2017-11-07T05:47:48.802Z,3.50
2017-11-07T05:50:16.983Z,3.60
2017-11-07T05:52:45.382Z,3.50
2017-11-07T05:55:12.798Z,3.50
2017-11-07T05:57:40.225Z,3.30
2017-11-07T06:00:07.634Z,3.10
2017-11-07T06:02:35.815Z,3.20
2017-11-07T06:05:04.003Z,3.30
2017-11-07T06:07:31.422Z,3.30
2017-11-07T06:09:58.839Z,3.40
2017-11-07T06:12:26.258Z,3.40
2017-11-07T06:14:54.445Z,3.70
2017-11-07T06:17:22.231Z,3.70
2017-11-07T06:19:49.638Z,3.70
2017-11-07T06:22:17.058Z,3.70
2017-11-07T06:24:44.466Z,3.70
2017-11-07T06:27:12.648Z,4.00
2017-11-07T06:29:40.847Z,4.00
2017-11-07T06:32:08.250Z,4.00
2017-11-07T06:34:36.195Z,4.00
2017-11-07T06:37:03.615Z,3.90
2017-11-07T06:39:31.084Z,3.90
2017-11-07T06:41:58.747Z,4.00
2017-11-07T06:44:26.155Z,4.00
2017-11-07T06:46:53.557Z,4.00
2017-11-07T06:49:20.995Z,3.80
2017-11-07T06:51:48.400Z,3.80
2017-11-07T06:54:15.820Z,3.80
2017-11-07T06:56:43.244Z,3.70
2017-11-07T06:59:11.410Z,3.50
2017-11-07T07:01:39.610Z,3.50
2017-11-07T07:04:07.023Z,3.50
2017-11-07T07:06:34.423Z,3.60
2017-11-07T07:09:02.187Z,3.50
2017-11-07T07:11:30.341Z,3.30
2017-11-07T07:13:58.528Z,3.30
2017-11-07T07:16:25.947Z,3.30
2017-11-07T07:18:53.370Z,3.60
2017-11-07T07:21:20.806Z,3.80
2017-11-07T07:23:48.218Z,3.90
2017-11-07T07:26:17.318Z,4.10
2017-11-07T07:28:44.742Z,4.30
2017-11-07T07:31:12.826Z,4.50
2017-11-07T07:33:40.256Z,4.30
2017-11-07T07:36:07.667Z,4.40
2017-11-07T07:38:35.856Z,4.50
2017-11-07T07:41:04.031Z,4.60
2017-11-07T07:43:32.219Z,4.50
2017-11-07T07:45:59.639Z,4.50
2017-11-07T07:48:27.066Z,4.60
2017-11-07T07:50:54.482Z,4.50
2017-11-07T07:53:21.902Z,4.60
2017-11-07T07:55:49.318Z,4.70
2017-11-07T07:58:16.730Z,4.60
2017-11-07T08:00:45.424Z,4.70
2017-11-07T08:03:13.605Z,4.60
2017-11-07T08:05:41.024Z,4.60
2017-11-07T08:08:08.461Z,4.60
2017-11-07T08:10:35.862Z,4.60
2017-11-07T08:13:04.042Z,4.80
2017-11-07T08:15:32.230Z,4.70
2017-11-07T08:17:59.647Z,4.70
2017-11-07T08:20:27.070Z,4.60
2017-11-07T08:22:54.477Z,4.80
2017-11-07T08:25:22.662Z,4.90
2017-11-07T08:27:50.078Z,4.90
2017-11-07T08:30:17.495Z,4.90
2017-11-07T08:32:45.438Z,5.10
2017-11-07T08:35:13.631Z,5.40
2017-11-07T08:37:41.042Z,5.30
2017-11-07T08:40:08.458Z,5.40
2017-11-07T08:42:35.878Z,5.40
2017-11-07T08:45:04.070Z,5.80
2017-11-07T08:47:31.470Z,5.70
2017-11-07T08:49:58.881Z,5.80
2017-11-07T08:52:26.304Z,6.00
2017-11-07T08:54:54.482Z,6.20
2017-11-07T08:57:22.667Z,6.40
2017-11-07T08:59:50.847Z,6.80
2017-11-07T09:02:19.065Z,6.70
2017-11-07T09:04:46.474Z,7.00
2017-11-07T09:07:14.663Z,7.20
2017-11-07T09:09:42.074Z,7.20
2017-11-07T09:12:09.489Z,7.00
2017-11-07T09:14:36.909Z,6.90
2017-11-07T09:17:04.310Z,6.90
2017-11-07T09:19:31.727Z,6.90
2017-11-07T09:21:59.923Z,7.00
2017-11-07T09:24:27.334Z,7.00
2017-11-07T09:26:54.757Z,7.30
2017-11-07T09:29:22.167Z,7.60
2017-11-07T09:31:50.347Z,8.20
2017-11-07T09:34:17.763Z,8.20
2017-11-07T09:36:45.463Z,8.10
2017-11-07T09:39:12.891Z,8.20
2017-11-07T09:41:40.301Z,8.20
2017-11-07T09:44:08.211Z,8.30
2017-11-07T09:46:35.623Z,8.40
2017-11-07T09:49:03.050Z,8.20
2017-11-07T09:51:31.228Z,8.50
2017-11-07T09:53:59.414Z,8.50
2017-11-07T09:56:26.823Z,8.50
2017-11-07T09:58:54.248Z,8.50
2017-11-07T10:01:21.662Z,9.10
2017-11-07T10:03:49.858Z,10.30
2017-11-07T10:06:17.275Z,10.20
2017-11-07T10:08:48.398Z,10.70
2017-11-07T10:11:15.817Z,11.00
2017-11-07T10:13:43.234Z,11.20
2017-11-07T10:16:10.634Z,11.20
2017-11-07T10:18:38.046Z,11.10
2017-11-07T10:21:05.474Z,11.00
2017-11-07T10:23:32.892Z,10.90
2017-11-07T10:26:00.311Z,10.50
2017-11-07T10:28:27.723Z,10.30
2017-11-07T10:30:55.150Z,10.30
2017-11-07T10:33:22.562Z,10.50
2017-11-07T10:35:49.995Z,10.60
2017-11-07T10:38:17.402Z,10.60
2017-11-07T10:40:46.753Z,10.90
2017-11-07T10:43:14.175Z,10.80
2017-11-07T10:45:42.488Z,10.80
2017-11-07T10:48:09.893Z,10.80
2017-11-07T10:50:38.080Z,10.70
2017-11-07T10:53:05.499Z,10.70
2017-11-07T10:55:33.833Z,10.70
2017-11-07T10:58:01.244Z,10.60
2017-11-07T11:00:28.682Z,10.50
2017-11-07T11:02:56.113Z,10.50
2017-11-07T11:05:23.526Z,10.40
2017-11-07T11:07:51.715Z,10.30
2017-11-07T11:10:19.132Z,10.30
2017-11-07T11:12:46.562Z,10.30
2017-11-07T11:15:14.743Z,10.50
2017-11-07T11:17:42.589Z,10.40
2017-11-07T11:20:09.991Z,10.60
2017-11-07T11:22:37.416Z,10.60
2017-11-07T11:25:05.134Z,10.50
2017-11-07T11:27:33.318Z,10.40
2017-11-07T11:30:00.738Z,10.40
2017-11-07T11:32:28.165Z,10.30
2017-11-07T11:34:55.582Z,10.10
2017-11-07T11:37:22.990Z,9.90
2017-11-07T11:39:50.416Z,9.80
2017-11-07T11:42:17.826Z,9.70
2017-11-07T11:44:45.243Z,9.80
2017-11-07T11:47:13.458Z,9.80
2017-11-07T11:49:40.875Z,9.80
2017-11-07T11:52:08.285Z,9.90
2017-11-07T11:54:36.461Z,9.50
2017-11-07T11:57:04.641Z,9.40
2017-11-07T11:59:32.841Z,9.60
2017-11-07T12:02:00.243Z,9.60
2017-11-07T12:04:27.667Z,9.70
2017-11-07T12:06:55.074Z,9.80
2017-11-07T12:09:23.257Z,9.40
2017-11-07T12:11:50.698Z,9.40
2017-11-07T12:14:18.885Z,9.30
2017-11-07T12:16:46.306Z,9.20
2017-11-07T12:19:15.250Z,9.30
2017-11-07T12:21:42.666Z,9.30
2017-11-07T12:24:10.075Z,9.10
2017-11-07T12:26:37.498Z,9.00
2017-11-07T12:29:05.673Z,9.00
2017-11-07T12:31:33.866Z,9.00
2017-11-07T12:34:01.277Z,9.00
2017-11-07T12:36:28.684Z,9.00
2017-11-07T12:38:56.107Z,9.10
2017-11-07T12:41:24.279Z,9.10
2017-11-07T12:43:52.463Z,9.20
2017-11-07T12:46:21.430Z,9.20
2017-11-07T12:48:48.850Z,9.20
2017-11-07T12:51:28.278Z,8.60
2017-11-07T12:53:55.682Z,8.00
2017-11-07T12:56:23.627Z,7.80
2017-11-07T12:58:51.050Z,7.80
2017-11-07T13:01:18.483Z,7.50
2017-11-07T13:03:46.650Z,7.40
2017-11-07T13:06:14.828Z,7.50
2017-11-07T13:08:43.011Z,7.50
2017-11-07T13:11:10.422Z,7.50
2017-11-07T13:13:37.843Z,7.70
2017-11-07T13:16:05.254Z,7.70
2017-11-07T13:18:32.683Z,7.70
2017-11-07T13:21:00.098Z,8.00
2017-11-07T13:23:27.518Z,8.20
2017-11-07T13:25:55.646Z,8.30
2017-11-07T13:28:23.051Z,8.30
2017-11-07T13:30:51.248Z,7.60
2017-11-07T13:33:18.654Z,7.60
2017-11-07T13:35:46.074Z,7.50
2017-11-07T13:38:13.490Z,7.40
2017-11-07T13:40:41.805Z,7.60
2017-11-07T13:43:09.218Z,7.80
2017-11-07T13:45:36.643Z,7.80
2017-11-07T13:48:04.059Z,8.00
2017-11-07T13:50:31.477Z,8.10
2017-11-07T13:52:58.879Z,8.10
2017-11-07T13:55:26.298Z,7.80
2017-11-07T13:57:53.705Z,7.70
2017-11-07T14:00:21.127Z,7.90
2017-11-07T14:02:49.311Z,7.70
2017-11-07T14:05:16.734Z,7.70
2017-11-07T14:07:44.142Z,7.40
2017-11-07T14:10:11.567Z,7.40
2017-11-07T14:12:39.747Z,7.30
2017-11-07T14:15:07.935Z,7.20
2017-11-07T14:17:35.350Z,7.20
2017-11-07T14:20:02.765Z,7.10
2017-11-07T14:22:30.182Z,7.20
2017-11-07T14:24:58.358Z,7.10
2017-11-07T14:27:26.550Z,7.10
2017-11-07T14:29:53.958Z,7.10
2017-11-07T14:32:21.380Z,7.00
2017-11-07T14:34:48.795Z,7.10
2017-11-07T14:37:16.988Z,7.60
2017-11-07T14:39:45.166Z,7.60
2017-11-07T14:42:12.583Z,7.60
2017-11-07T14:44:40.002Z,7.60
2017-11-07T14:47:07.426Z,7.60
2017-11-07T14:49:34.847Z,7.60
2017-11-07T14:52:02.271Z,7.70
2017-11-07T14:54:29.685Z,7.70
2017-11-07T14:56:57.871Z,7.80
2017-11-07T14:59:25.294Z,7.80
2017-11-07T15:01:52.702Z,7.90
2017-11-07T15:04:20.125Z,7.90
2017-11-07T15:06:48.302Z,7.80
2017-11-07T15:09:17.378Z,7.80
2017-11-07T15:11:44.792Z,7.80
2017-11-07T15:14:12.219Z,7.90
2017-11-07T15:16:39.634Z,7.80
2017-11-07T15:19:07.060Z,7.80
2017-11-07T15:21:34.470Z,7.80
2017-11-07T15:24:02.650Z,7.70
2017-11-07T15:26:30.839Z,7.70
2017-11-07T15:28:58.258Z,7.70
2017-11-07T15:31:25.672Z,7.70
2017-11-07T15:33:54.350Z,7.70
2017-11-07T15:36:21.762Z,7.70
2017-11-07T15:38:49.183Z,7.70
2017-11-07T15:41:17.367Z,7.60
2017-11-07T15:43:44.778Z,7.60
2017-11-07T15:46:12.203Z,7.50
2017-11-07T15:48:39.628Z,7.50
2017-11-07T15:51:07.046Z,7.50
2017-11-07T15:53:34.454Z,7.50
2017-11-07T15:56:03.382Z,7.50
2017-11-07T15:58:31.566Z,7.50
2017-11-07T16:00:59.747Z,7.50
2017-11-07T16:03:27.169Z,7.40
2017-11-07T16:05:54.587Z,7.50
2017-11-07T16:08:21.995Z,7.50
2017-11-07T16:10:50.187Z,7.50
2017-11-07T16:13:17.595Z,7.50
2017-11-07T16:15:45.031Z,7.40
2017-11-07T16:18:12.446Z,7.50
2017-11-07T16:20:39.863Z,7.50
2017-11-07T16:23:07.283Z,7.50
2017-11-07T16:25:34.702Z,7.50
2017-11-07T16:28:02.894Z,7.50
2017-11-07T16:30:30.312Z,7.50
2017-11-07T16:32:57.730Z,7.50
2017-11-07T16:35:25.154Z,7.40
2017-11-07T16:37:53.348Z,7.50
2017-11-07T16:40:20.755Z,7.50
2017-11-07T16:42:48.173Z,7.50
2017-11-07T16:45:15.982Z,7.50
2017-11-07T16:47:43.402Z,7.50
2017-11-07T16:50:10.829Z,7.50
2017-11-07T16:52:38.240Z,7.50
2017-11-07T16:55:06.499Z,7.60
2017-11-07T16:57:33.918Z,7.60
2017-11-07T17:00:01.804Z,7.50
2017-11-07T17:02:29.206Z,7.50
2017-11-07T17:04:56.627Z,7.50
2017-11-07T17:07:24.064Z,7.50
2017-11-07T17:09:51.466Z,7.50
2017-11-07T17:12:18.879Z,7.50
2017-11-07T17:14:46.294Z,7.50
2017-11-07T17:17:14.479Z,7.50
2017-11-07T17:19:42.665Z,7.50
2017-11-07T17:22:10.078Z,7.50
2017-11-07T17:24:37.499Z,7.50
2017-11-07T17:27:04.910Z,7.50
2017-11-07T17:29:33.102Z,7.50
2017-11-07T17:32:00.513Z,7.40
2017-11-07T17:34:27.933Z,7.40
2017-11-07T17:36:55.347Z,7.50
2017-11-07T17:39:22.776Z,7.50
2017-11-07T17:41:50.955Z,7.30
2017-11-07T17:44:18.367Z,7.30
2017-11-07T17:46:45.788Z,7.20
2017-11-07T17:49:13.198Z,7.30
2017-11-07T17:51:40.654Z,7.10
2017-11-07T17:54:08.059Z,7.10
2017-11-07T17:56:36.371Z,7.10
2017-11-07T17:59:03.800Z,7.30
2017-11-07T18:01:31.986Z,7.30
2017-11-07T18:04:00.168Z,7.20
2017-11-07T18:06:27.575Z,7.20
2017-11-07T18:08:54.987Z,7.10
2017-11-07T18:11:22.395Z,7.00
2017-11-07T18:13:49.814Z,6.80
2017-11-07T18:16:17.230Z,6.70
2017-11-07T18:18:45.414Z,6.70
2017-11-07T18:21:12.830Z,6.70
2017-11-07T18:23:40.260Z,6.70
2017-11-07T18:26:07.674Z,6.70
2017-11-07T18:28:35.858Z,6.80
2017-11-07T18:31:03.829Z,6.80
2017-11-07T18:33:32.017Z,6.50
2017-11-07T18:35:59.413Z,6.60
2017-11-07T18:38:26.823Z,6.50
2017-11-07T18:40:54.238Z,6.60
2017-11-07T18:43:21.647Z,6.80
2017-11-07T18:45:49.736Z,6.90
2017-11-07T18:48:17.147Z,7.00
2017-11-07T18:50:45.331Z,6.90
2017-11-07T18:53:12.745Z,6.90
2017-11-07T18:55:40.159Z,7.00
2017-11-07T18:58:07.566Z,7.20
2017-11-07T19:00:34.979Z,7.10
2017-11-07T19:03:02.382Z,7.00
2017-11-07T19:05:30.570Z,6.90
2017-11-07T19:07:58.759Z,6.70
2017-11-07T19:10:26.178Z,6.70
2017-11-07T19:12:53.591Z,6.50
2017-11-07T19:15:21.006Z,6.40
2017-11-07T19:17:49.191Z,6.30
2017-11-07T19:20:17.379Z,6.20
2017-11-07T19:22:44.791Z,6.20
2017-11-07T19:25:12.217Z,6.30
2017-11-07T19:27:39.630Z,6.30
2017-11-07T19:30:07.818Z,6.40
2017-11-07T19:35:25.894Z,6.30
2017-11-07T19:37:53.306Z,6.40
2017-11-07T19:40:21.489Z,6.40
2017-11-07T19:42:49.690Z,6.30
2017-11-07T19:45:17.089Z,6.30
2017-11-07T19:47:44.514Z,6.30
2017-11-07T19:50:11.917Z,6.30
2017-11-07T19:52:40.101Z,6.20
2017-11-07T19:55:08.277Z,6.40
2017-11-07T19:57:36.466Z,6.50
2017-11-07T20:00:04.513Z,6.50
2017-11-07T20:02:32.706Z,6.40
2017-11-07T20:05:00.126Z,6.40
2017-11-07T20:07:27.544Z,6.20
2017-11-07T20:09:54.950Z,6.10
2017-11-07T20:12:22.371Z,6.20
2017-11-07T20:14:50.554Z,6.30
2017-11-07T20:17:17.966Z,6.30
2017-11-07T20:19:45.386Z,6.40
2017-11-07T20:22:12.817Z,6.20
2017-11-07T20:24:40.228Z,6.30
2017-11-07T20:27:08.398Z,6.20
2017-11-07T20:29:36.573Z,6.20
2017-11-07T20:32:03.991Z,6.20
2017-11-07T20:34:31.413Z,6.20
2017-11-07T20:36:58.822Z,6.20
2017-11-07T20:39:26.253Z,6.30
2017-11-07T20:41:53.661Z,6.30
2017-11-07T20:44:21.086Z,6.20
2017-11-07T20:46:48.493Z,6.10
2017-11-07T20:49:15.897Z,6.00
2017-11-07T20:51:45.094Z,6.00
2017-11-07T20:54:12.510Z,6.00
2017-11-07T20:56:39.930Z,5.90
2017-11-07T20:59:07.353Z,5.90
2017-11-07T21:01:34.763Z,5.90
2017-11-07T21:04:02.184Z,5.90
2017-11-07T21:06:30.370Z,5.80
2017-11-07T21:08:58.541Z,5.80
2017-11-07T21:11:26.726Z,5.80
2017-11-07T21:13:54.146Z,5.80
2017-11-07T21:16:21.565Z,5.70
2017-11-07T21:18:51.861Z,5.80
2017-11-07T21:21:19.282Z,5.70
2017-11-07T21:23:46.695Z,5.70
2017-11-07T21:26:14.118Z,5.60
2017-11-07T21:28:42.302Z,5.60
2017-11-07T21:31:09.747Z,5.60
2017-11-07T21:33:37.917Z,5.80
2017-11-07T21:36:06.106Z,6.00
2017-11-07T21:38:33.518Z,6.00
2017-11-07T21:41:00.941Z,6.20
2017-11-07T21:43:28.353Z,6.40
2017-11-07T21:45:56.547Z,6.40
2017-11-07T21:48:24.722Z,6.40
2017-11-07T21:50:52.130Z,6.40
2017-11-07T21:53:19.549Z,6.40
2017-11-07T21:55:46.962Z,6.40
2017-11-07T21:58:14.391Z,6.20
2017-11-07T22:00:41.809Z,6.20
2017-11-07T22:03:09.234Z,6.20
2017-11-07T22:05:36.642Z,6.20
2017-11-07T22:08:04.065Z,6.20
2017-11-07T22:10:31.484Z,6.30
2017-11-07T22:12:58.925Z,6.30
2017-11-07T22:15:27.113Z,6.30
2017-11-07T22:17:55.466Z,6.30
2017-11-07T22:20:22.882Z,6.30
2017-11-07T22:22:56.970Z,6.40
2017-11-07T22:25:24.386Z,6.40
2017-11-07T22:27:51.792Z,6.30
2017-11-07T22:30:19.993Z,6.10
2017-11-07T22:32:47.399Z,6.00
2017-11-07T22:35:14.820Z,6.00
2017-11-07T22:37:42.234Z,6.00
2017-11-07T22:40:09.649Z,6.20
2017-11-07T22:42:37.063Z,6.30
2017-11-07T22:45:05.246Z,6.40
2017-11-07T22:47:32.655Z,6.40
2017-11-07T22:50:00.070Z,6.50
2017-11-07T22:52:27.490Z,6.60
2017-11-07T22:54:54.902Z,6.60
2017-11-07T22:57:22.322Z,6.70
2017-11-07T22:59:49.734Z,6.60
2017-11-07T23:02:17.149Z,6.60
2017-11-07T23:04:44.573Z,6.60
2017-11-07T23:07:12.758Z,6.70
2017-11-07T23:09:40.934Z,6.70
2017-11-07T23:12:08.359Z,6.70
2017-11-07T23:14:35.795Z,6.70
2017-11-07T23:17:03.202Z,6.60
2017-11-07T23:19:31.378Z,6.70
2017-11-07T23:21:58.802Z,6.70
2017-11-07T23:24:26.216Z,6.70
2017-11-07T23:26:53.636Z,6.60
2017-11-07T23:29:21.809Z,6.60
2017-11-07T23:31:49.999Z,6.60
2017-11-07T23:34:17.407Z,6.60
2017-11-07T23:36:44.821Z,6.60
2017-11-07T23:39:12.231Z,6.60
2017-11-07T23:41:39.646Z,6.40
2017-11-07T23:44:07.066Z,6.40
2017-11-07T23:46:35.257Z,6.20
2017-11-07T23:49:02.665Z,6.20
2017-11-07T23:51:30.079Z,6.20
2017-11-07T23:53:57.501Z,6.30
2017-11-07T23:56:25.686Z,6.40
2017-11-07T23:58:55.637Z,6.40
